Time;durP1;ratioP1;P1;durP2;ratioP2;P2;SDS_P1;SDS_P2;PMS_P1;PMS_P2;Temp;Humidity;BMP_temperature;BMP_pressure;BME280_temperature;BME280_humidity;BME280_pressure;Samples;Min_cycle;Max_cycle;Signal;HPM_P1;HPM_P2
2021/03/30 00:00:28;;;;;;;5.03;4.20;;;10.80;50.40;;;;;;5056559;28;20772;-68
2021/03/30 00:02:53;;;;;;;8.93;3.30;;;10.70;51.40;;;;;;5067814;28;20522;-68
2021/03/30 00:05:19;;;;;;;4.20;3.80;;;10.70;51.30;;;;;;5061424;28;20204;-67
2021/03/30 00:07:45;;;;;;;6.27;3.40;;;10.70;51.00;;;;;;5069005;28;20220;-68
2021/03/30 00:10:14;;;;;;;3.80;3.03;;;10.60;51.00;;;;;;5063570;28;20185;-68
2021/03/30 00:12:41;;;;;;;4.40;3.60;;;10.60;51.20;;;;;;5068972;28;20581;-68
2021/03/30 00:15:09;;;;;;;6.90;4.13;;;10.60;51.50;;;;;;5053707;28;20844;-67
2021/03/30 00:17:35;;;;;;;4.10;3.70;;;10.60;52.30;;;;;;5062862;28;20436;-68
2021/03/30 00:20:01;;;;;;;4.10;3.10;;;10.50;52.00;;;;;;5065192;28;20823;-67
2021/03/30 00:22:26;;;;;;;7.40;3.30;;;10.60;52.10;;;;;;5060169;28;20859;-67
2021/03/30 00:24:52;;;;;;;4.80;3.57;;;10.60;52.30;;;;;;5069568;28;20790;-67
2021/03/30 00:27:17;;;;;;;4.23;3.80;;;10.60;53.10;;;;;;5060326;28;20264;-68
2021/03/30 00:29:43;;;;;;;4.43;4.03;;;10.50;53.00;;;;;;5062929;28;20201;-67
2021/03/30 00:32:13;;;;;;;5.83;4.37;;;10.50;53.10;;;;;;5059139;28;20177;-68
2021/03/30 00:34:39;;;;;;;3.67;2.70;;;10.40;52.80;;;;;;5071843;28;20231;-67
2021/03/30 00:37:05;;;;;;;3.43;3.10;;;10.40;52.90;;;;;;5057107;28;20445;-67
2021/03/30 00:39:31;;;;;;;8.63;3.20;;;10.30;53.30;;;;;;5064277;28;20458;-67
2021/03/30 00:41:57;;;;;;;3.70;3.40;;;10.30;53.60;;;;;;5068086;28;20436;-68
2021/03/30 00:44:22;;;;;;;8.13;3.73;;;10.30;54.00;;;;;;5073246;28;20461;-67
2021/03/30 00:46:50;;;;;;;5.07;3.20;;;10.40;54.00;;;;;;5065674;28;20244;-67
2021/03/30 00:49:18;;;;;;;5.83;3.27;;;10.30;53.60;;;;;;5064981;28;20260;-68
2021/03/30 00:51:45;;;;;;;4.10;3.17;;;10.20;53.90;;;;;;5053481;28;20450;-68
2021/03/30 00:54:11;;;;;;;3.43;2.97;;;10.20;53.80;;;;;;5070982;28;20459;-68
2021/03/30 00:56:37;;;;;;;7.43;3.53;;;10.00;54.90;;;;;;5065229;28;20467;-67
2021/03/30 00:59:02;;;;;;;3.60;3.30;;;10.00;56.10;;;;;;5053704;28;20205;-67
2021/03/30 01:01:28;;;;;;;5.50;3.63;;;10.00;56.20;;;;;;5052188;28;20972;-67
2021/03/30 01:03:54;;;;;;;3.73;3.43;;;9.90;56.40;;;;;;5069579;28;20654;-68
2021/03/30 01:06:20;;;;;;;4.40;3.30;;;9.80;56.40;;;;;;5057645;28;20244;-67
2021/03/30 01:09:04;;;;;;;3.17;2.90;;;9.70;57.30;;;;;;5057341;28;20185;-68
2021/03/30 01:11:36;;;;;;;4.03;3.23;;;9.70;58.90;;;;;;5067406;28;20652;-67
2021/03/30 01:14:30;;;;;;;7.03;3.60;;;9.60;59.30;;;;;;5057240;28;20428;-67
2021/03/30 01:17:22;;;;;;;4.20;3.47;;;9.60;59.00;;;;;;5071937;28;20431;-67
2021/03/30 01:20:06;;;;;;;3.33;2.73;;;9.50;58.50;;;;;;5060542;28;20491;-67
2021/03/30 01:22:38;;;;;;;4.17;3.10;;;9.60;58.90;;;;;;5072576;28;20439;-68
2021/03/30 01:25:05;;;;;;;4.00;3.60;;;9.60;59.60;;;;;;5069837;28;22187;-67
2021/03/30 01:27:50;;;;;;;6.13;3.73;;;9.60;60.30;;;;;;5063268;28;20438;-67
2021/03/30 01:30:19;;;;;;;7.03;3.33;;;9.50;61.60;;;;;;5059889;28;20450;-68
2021/03/30 01:32:51;;;;;;;3.47;2.97;;;9.50;62.20;;;;;;5052923;28;20464;-67
2021/03/30 01:35:22;;;;;;;5.10;3.90;;;9.50;62.60;;;;;;5070743;28;20518;-67
2021/03/30 01:37:48;;;;;;;5.50;3.10;;;9.40;63.70;;;;;;5053633;28;20431;-67
2021/03/30 01:40:21;;;;;;;3.37;3.07;;;9.30;64.30;;;;;;5053775;28;20452;-67
2021/03/30 01:42:48;;;;;;;8.50;3.97;;;9.40;63.00;;;;;;5056530;28;20957;-67
2021/03/30 01:45:18;;;;;;;5.00;4.20;;;9.60;63.30;;;;;;5070579;28;20553;-67
2021/03/30 01:47:44;;;;;;;3.80;3.50;;;9.50;64.00;;;;;;5062978;28;20436;-67
2021/03/30 01:50:11;;;;;;;5.00;3.67;;;9.50;65.70;;;;;;5057019;28;20449;-67
2021/03/30 01:52:38;;;;;;;6.20;3.63;;;9.40;65.30;;;;;;5071294;28;20173;-68
2021/03/30 01:55:08;;;;;;;7.70;4.57;;;9.40;68.60;;;;;;5057847;28;20585;-68
2021/03/30 01:57:36;;;;;;;5.53;5.03;;;9.30;68.30;;;;;;5067936;28;20480;-67
2021/03/30 02:00:06;;;;;;;3.63;3.23;;;9.20;69.40;;;;;;5057439;28;20600;-67
2021/03/30 02:02:32;;;;;;;3.97;3.27;;;9.20;69.50;;;;;;5058765;28;20937;-68
2021/03/30 02:04:58;;;;;;;7.37;3.77;;;9.20;70.80;;;;;;5053506;28;20443;-68
2021/03/30 02:07:24;;;;;;;3.93;3.60;;;9.10;72.40;;;;;;5054015;28;20177;-68
2021/03/30 02:09:54;;;;;;;3.77;3.47;;;9.10;73.10;;;;;;5059964;28;20212;-67
2021/03/30 02:12:23;;;;;;;4.37;3.73;;;9.00;72.90;;;;;;5061291;28;20794;-67
2021/03/30 02:14:49;;;;;;;4.73;3.97;;;8.90;74.70;;;;;;5056640;28;20523;-67
2021/03/30 02:17:20;;;;;;;5.10;3.10;;;8.90;77.80;;;;;;5065614;28;21068;-67
2021/03/30 02:19:53;;;;;;;4.00;3.20;;;8.80;77.20;;;;;;5052043;28;20728;-68
2021/03/30 02:22:37;;;;;;;4.30;3.57;;;8.80;75.60;;;;;;5061367;28;20463;-67
2021/03/30 02:25:05;;;;;;;3.27;2.80;;;8.80;76.00;;;;;;5058144;28;20446;-67
2021/03/30 02:27:39;;;;;;;7.70;3.67;;;8.90;76.30;;;;;;5060298;28;20431;-67
2021/03/30 02:30:07;;;;;;;4.30;3.30;;;8.90;76.50;;;;;;5067502;28;20805;-68
2021/03/30 02:32:33;;;;;;;6.03;3.10;;;8.90;79.50;;;;;;5065280;28;20932;-67
2021/03/30 02:35:02;;;;;;;4.67;3.20;;;8.90;79.20;;;;;;5053322;28;20427;-67
2021/03/30 02:37:28;;;;;;;8.90;3.90;;;8.80;79.30;;;;;;5067717;28;20427;-67
2021/03/30 02:39:53;;;;;;;5.03;3.83;;;8.90;79.60;;;;;;5052410;28;20447;-67
2021/03/30 02:42:20;;;;;;;5.80;3.70;;;8.80;81.90;;;;;;5052705;28;20173;-67
2021/03/30 02:44:48;;;;;;;9.50;4.50;;;8.70;83.10;;;;;;5051660;28;20564;-68
2021/03/30 02:47:16;;;;;;;8.30;4.10;;;8.70;85.10;;;;;;5058701;28;20492;-68
2021/03/30 02:49:43;;;;;;;6.10;4.30;;;8.60;84.20;;;;;;5053256;28;20533;-67
2021/03/30 02:52:09;;;;;;;7.60;4.60;;;8.60;88.70;;;;;;5058663;28;20427;-67
2021/03/30 02:54:35;;;;;;;5.10;3.53;;;8.50;89.30;;;;;;5065793;28;20432;-67
2021/03/30 02:57:02;;;;;;;7.43;3.70;;;8.50;88.60;;;;;;5067017;28;20431;-68
2021/03/30 02:59:31;;;;;;;9.37;4.87;;;8.40;90.50;;;;;;5063602;28;20189;-68
2021/03/30 03:01:57;;;;;;;9.13;5.27;;;8.30;90.90;;;;;;5056016;28;20435;-68
2021/03/30 03:04:25;;;;;;;7.23;3.60;;;8.30;91.30;;;;;;5069831;28;20932;-67
2021/03/30 03:06:51;;;;;;;8.47;4.40;;;8.40;91.80;;;;;;5056479;28;20478;-67
2021/03/30 03:09:16;;;;;;;4.47;3.57;;;8.50;92.00;;;;;;5053327;28;20446;-67
2021/03/30 03:11:47;;;;;;;8.20;3.83;;;8.50;92.00;;;;;;5066764;28;20169;-67
2021/03/30 03:14:14;;;;;;;5.77;3.60;;;8.50;92.40;;;;;;5063325;28;20173;-67
2021/03/30 03:16:42;;;;;;;7.93;4.07;;;8.50;92.90;;;;;;5053115;28;20446;-67
2021/03/30 03:19:09;;;;;;;5.67;3.77;;;8.50;93.10;;;;;;5053190;28;20454;-67
2021/03/30 03:21:38;;;;;;;7.63;4.00;;;8.60;93.30;;;;;;5053852;28;20436;-67
2021/03/30 03:24:08;;;;;;;3.70;3.40;;;8.50;93.20;;;;;;5066044;28;20434;-67
2021/03/30 03:26:34;;;;;;;9.50;3.17;;;8.40;94.10;;;;;;5058135;28;20451;-67
2021/03/30 03:28:59;;;;;;;5.73;4.77;;;8.40;94.20;;;;;;5069268;28;20455;-67
2021/03/30 03:31:29;;;;;;;13.03;8.70;;;8.40;95.40;;;;;;5051111;28;20177;-68
2021/03/30 03:34:04;;;;;;;8.17;4.57;;;8.30;96.00;;;;;;5068424;28;20176;-68
2021/03/30 03:36:41;;;;;;;4.53;4.00;;;8.30;95.80;;;;;;5058699;28;20441;-67
2021/03/30 03:39:09;;;;;;;6.60;4.13;;;8.30;96.30;;;;;;5063904;28;20462;-67
2021/03/30 03:41:35;;;;;;;8.70;4.60;;;8.30;96.40;;;;;;5067883;28;20439;-68
2021/03/30 03:44:01;;;;;;;7.47;4.60;;;8.20;97.90;;;;;;5051805;28;20889;-67
2021/03/30 03:46:26;;;;;;;4.77;4.07;;;8.10;99.20;;;;;;5064507;28;20200;-67
2021/03/30 03:48:52;;;;;;;6.77;4.23;;;8.00;99.70;;;;;;5059639;28;20483;-67
2021/03/30 03:51:18;;;;;;;4.40;4.00;;;8.00;99.90;;;;;;5066970;28;20681;-67
2021/03/30 03:53:46;;;;;;;5.20;4.27;;;7.90;99.90;;;;;;5052010;28;20620;-67
2021/03/30 03:56:15;;;;;;;6.10;4.37;;;7.90;99.90;;;;;;5051752;28;20436;-68
2021/03/30 03:58:46;;;;;;;7.83;5.97;;;7.80;99.90;;;;;;5058256;28;20530;-67
2021/03/30 04:01:15;;;;;;;7.97;5.13;;;7.80;99.90;;;;;;5073399;28;20794;-67
2021/03/30 04:04:02;;;;;;;7.47;4.40;;;7.80;99.90;;;;;;5069679;28;20431;-68
2021/03/30 04:06:32;;;;;;;8.00;4.70;;;7.80;99.90;;;;;;5059441;28;20940;-67
2021/03/30 04:09:01;;;;;;;5.37;3.50;;;7.90;99.90;;;;;;5059793;28;20793;-67
2021/03/30 04:11:28;;;;;;;7.27;4.83;;;7.90;99.90;;;;;;5069801;28;20896;-68
2021/03/30 04:13:56;;;;;;;8.53;4.00;;;7.80;99.90;;;;;;5069408;28;20423;-67
2021/03/30 04:16:22;;;;;;;7.53;5.70;;;7.80;99.90;;;;;;5068454;28;20431;-67
2021/03/30 04:18:47;;;;;;;5.13;4.00;;;7.80;99.90;;;;;;5077643;28;20438;-68
2021/03/30 04:21:40;;;;;;;4.40;3.87;;;7.80;99.90;;;;;;5067376;28;20513;-68
2021/03/30 04:24:08;;;;;;;7.93;5.43;;;7.70;99.90;;;;;;5048382;28;20673;-68
2021/03/30 04:26:34;;;;;;;9.37;5.87;;;7.60;99.90;;;;;;5063139;28;20531;-68
2021/03/30 04:28:59;;;;;;;8.00;5.67;;;7.60;99.90;;;;;;5059514;28;20455;-67
2021/03/30 04:31:25;;;;;;;6.33;4.53;;;7.50;99.90;;;;;;5051416;28;20507;-68
2021/03/30 04:33:51;;;;;;;4.93;4.43;;;7.40;99.90;;;;;;5063514;28;20655;-69
2021/03/30 04:36:17;;;;;;;5.50;4.10;;;7.40;99.90;;;;;;5060575;28;20212;-69
2021/03/30 04:38:42;;;;;;;5.47;4.37;;;7.40;99.90;;;;;;5068795;28;20523;-68
2021/03/30 04:41:08;;;;;;;7.73;3.90;;;7.40;99.90;;;;;;5050088;28;20184;-67
2021/03/30 04:43:33;;;;;;;7.50;4.20;;;7.40;99.90;;;;;;5065288;28;20185;-68
2021/03/30 04:45:59;;;;;;;8.80;4.33;;;7.40;99.90;;;;;;5053597;28;20209;-68
2021/03/30 04:48:24;;;;;;;6.50;4.20;;;7.40;99.90;;;;;;5069544;28;20178;-68
2021/03/30 04:50:50;;;;;;;6.27;4.00;;;7.30;99.90;;;;;;5051684;28;20679;-67
2021/03/30 04:53:15;;;;;;;4.30;3.90;;;7.30;99.90;;;;;;5064374;28;20272;-68
2021/03/30 04:55:41;;;;;;;6.33;4.17;;;7.30;99.90;;;;;;5058468;28;20180;-68
2021/03/30 04:58:07;;;;;;;6.07;4.93;;;7.30;99.90;;;;;;5067042;28;20182;-68
2021/03/30 05:00:32;;;;;;;8.37;4.70;;;7.30;99.90;;;;;;5062840;28;20204;-67
2021/03/30 05:02:58;;;;;;;8.87;5.00;;;7.30;99.90;;;;;;5069143;28;20181;-68
2021/03/30 05:05:23;;;;;;;7.60;4.27;;;7.30;99.90;;;;;;5054521;28;20193;-67
2021/03/30 05:07:49;;;;;;;5.50;3.90;;;7.40;99.90;;;;;;5054450;28;20193;-67
2021/03/30 05:10:15;;;;;;;5.80;4.30;;;7.50;99.90;;;;;;5082455;28;20246;-67
2021/03/30 05:12:40;;;;;;;6.30;4.80;;;7.50;99.90;;;;;;5073179;28;20165;-68
2021/03/30 05:15:07;;;;;;;9.70;5.27;;;7.50;99.90;;;;;;5058988;28;20602;-68
2021/03/30 05:17:35;;;;;;;6.93;4.77;;;7.50;99.90;;;;;;5059307;28;20169;-67
2021/03/30 05:20:02;;;;;;;6.40;5.27;;;7.40;99.90;;;;;;5071462;28;20959;-68
2021/03/30 05:22:28;;;;;;;8.10;6.30;;;7.40;99.90;;;;;;5053804;28;20428;-68
2021/03/30 05:24:53;;;;;;;9.83;6.13;;;7.50;99.90;;;;;;5054316;28;20434;-67
2021/03/30 05:27:19;;;;;;;12.20;5.50;;;7.50;99.90;;;;;;5060027;28;20204;-68
2021/03/30 05:29:45;;;;;;;6.27;5.10;;;7.60;99.90;;;;;;5052759;28;20689;-68
2021/03/30 05:32:12;;;;;;;9.57;7.23;;;7.60;99.90;;;;;;5070736;28;20180;-67
2021/03/30 05:34:38;;;;;;;8.53;5.80;;;7.60;99.90;;;;;;5067514;28;20201;-68
2021/03/30 05:37:04;;;;;;;8.77;5.20;;;7.70;99.90;;;;;;5065690;28;20857;-67
2021/03/30 05:39:30;;;;;;;7.97;6.60;;;7.70;99.90;;;;;;5060060;28;20205;-67
2021/03/30 05:41:56;;;;;;;14.03;6.40;;;7.80;99.90;;;;;;5068799;28;20426;-67
2021/03/30 05:44:22;;;;;;;15.83;6.77;;;7.80;99.90;;;;;;5051820;28;20722;-68
2021/03/30 05:47:01;;;;;;;10.80;6.20;;;8.00;99.90;;;;;;5062229;28;20550;-68
2021/03/30 05:49:26;;;;;;;12.87;6.37;;;8.10;99.90;;;;;;5070826;28;20203;-68
2021/03/30 05:51:53;;;;;;;13.30;5.73;;;8.20;99.90;;;;;;5058964;28;20444;-67
2021/03/30 05:54:20;;;;;;;8.43;6.30;;;8.30;99.90;;;;;;5061204;28;20546;-68
2021/03/30 05:56:46;;;;;;;9.73;6.30;;;8.30;99.90;;;;;;5056216;28;20530;-68
2021/03/30 05:59:13;;;;;;;14.80;6.60;;;8.40;99.90;;;;;;5056617;28;21039;-68
2021/03/30 06:01:40;;;;;;;16.00;7.83;;;8.50;99.90;;;;;;5055228;28;20177;-73
2021/03/30 06:04:08;;;;;;;12.97;7.30;;;8.50;99.90;;;;;;5063595;28;20488;-66
2021/03/30 06:06:34;;;;;;;13.27;6.90;;;8.60;99.90;;;;;;5055084;28;20459;-67
2021/03/30 06:09:04;;;;;;;12.60;6.90;;;8.70;99.90;;;;;;5073849;28;20543;-66
2021/03/30 06:11:29;;;;;;;21.73;7.43;;;8.60;99.90;;;;;;5071401;28;20517;-67
2021/03/30 06:13:57;;;;;;;11.20;7.03;;;8.60;99.90;;;;;;5082875;28;20543;-74
2021/03/30 06:16:29;;;;;;;13.93;6.73;;;8.80;99.90;;;;;;5070391;28;20185;-68
2021/03/30 06:19:10;;;;;;;13.60;7.87;;;8.90;99.90;;;;;;5053991;28;20452;-68
2021/03/30 06:21:59;;;;;;;11.83;6.77;;;8.90;99.90;;;;;;5056651;28;20424;-68
2021/03/30 06:24:26;;;;;;;14.63;6.47;;;9.10;99.90;;;;;;5059977;28;20801;-68
2021/03/30 06:26:56;;;;;;;11.23;7.80;;;9.20;99.90;;;;;;5065926;28;20875;-67
2021/03/30 06:29:35;;;;;;;12.03;6.57;;;9.40;99.90;;;;;;5061542;28;20459;-68
2021/03/30 06:32:05;;;;;;;9.70;6.70;;;9.60;99.90;;;;;;5058784;28;20438;-68
2021/03/30 06:34:32;;;;;;;8.00;6.90;;;9.80;99.90;;;;;;5052357;28;20860;-68
2021/03/30 06:36:57;;;;;;;9.33;6.83;;;10.10;99.90;;;;;;5041940;28;20451;-68
2021/03/30 06:39:54;;;;;;;10.93;8.03;;;10.50;99.90;;;;;;5067817;28;20963;-68
2021/03/30 06:42:42;;;;;;;13.23;7.00;;;10.70;99.90;;;;;;5054682;28;20271;-68
2021/03/30 06:45:17;;;;;;;24.13;7.60;;;10.90;99.60;;;;;;5058251;28;20463;-68
2021/03/30 06:47:45;;;;;;;12.13;7.67;;;11.10;99.20;;;;;;5051285;28;20435;-68
2021/03/30 06:50:26;;;;;;;10.70;7.47;;;11.30;98.50;;;;;;5059001;28;20508;-68
2021/03/30 06:52:53;;;;;;;9.63;6.50;;;11.60;98.00;;;;;;5057418;28;20604;-68
2021/03/30 06:55:30;;;;;;;13.30;7.53;;;11.80;97.20;;;;;;5065851;28;20455;-67
2021/03/30 06:58:00;;;;;;;11.13;7.73;;;12.10;96.90;;;;;;5069450;28;20434;-67
2021/03/30 07:00:26;;;;;;;11.37;8.03;;;12.40;96.30;;;;;;5059935;28;20446;-68
2021/03/30 07:02:54;;;;;;;12.57;6.73;;;12.70;95.90;;;;;;5064342;28;20919;-68
2021/03/30 07:05:36;;;;;;;14.60;7.53;;;13.00;95.30;;;;;;5063086;28;20172;-67
2021/03/30 07:08:15;;;;;;;13.30;7.47;;;13.10;95.40;;;;;;5063939;28;20439;-68
2021/03/30 07:10:48;;;;;;;9.33;6.67;;;13.30;94.80;;;;;;5063281;28;20974;-67
2021/03/30 07:13:16;;;;;;;7.43;6.50;;;13.40;93.90;;;;;;5054349;28;20431;-68
2021/03/30 07:15:42;;;;;;;14.23;6.80;;;13.40;93.70;;;;;;5062829;28;20428;-68
2021/03/30 07:18:30;;;;;;;14.40;7.40;;;13.60;93.20;;;;;;5056239;28;20435;-68
2021/03/30 07:21:04;;;;;;;8.50;6.60;;;13.80;92.60;;;;;;5063662;28;20439;-68
2021/03/30 07:23:34;;;;;;;6.70;5.93;;;13.80;92.10;;;;;;5054120;28;22031;-68
2021/03/30 07:26:10;;;;;;;8.10;6.10;;;13.90;90.80;;;;;;5066781;28;21031;-68
2021/03/30 07:29:03;;;;;;;9.97;6.53;;;13.90;90.00;;;;;;5058889;28;21033;-68
2021/03/30 07:31:40;;;;;;;10.17;8.67;;;14.00;90.00;;;;;;5066096;28;20948;-67
2021/03/30 07:34:09;;;;;;;12.97;7.47;;;14.10;90.00;;;;;;5055634;28;20423;-67
2021/03/30 07:37:02;;;;;;;15.00;7.60;;;14.20;90.40;;;;;;5069539;28;20431;-68
2021/03/30 07:39:32;;;;;;;7.47;6.33;;;14.50;88.40;;;;;;5060700;28;20481;-68
2021/03/30 07:41:58;;;;;;;12.77;6.80;;;14.70;86.20;;;;;;5056466;28;20430;-68
2021/03/30 07:44:25;;;;;;;8.40;6.40;;;14.80;85.20;;;;;;5065908;28;20427;-68
2021/03/30 07:46:52;;;;;;;8.90;6.67;;;15.00;85.10;;;;;;5060129;28;20254;-68
2021/03/30 07:49:22;;;;;;;7.90;6.10;;;15.00;84.70;;;;;;5064271;28;20458;-68
2021/03/30 07:51:47;;;;;;;6.80;6.03;;;14.90;84.20;;;;;;5065026;28;20428;-68
2021/03/30 07:54:21;;;;;;;6.10;5.50;;;14.90;83.80;;;;;;5054580;28;20510;-67
2021/03/30 07:56:46;;;;;;;11.70;6.57;;;15.20;82.80;;;;;;5056557;28;20208;-68
2021/03/30 07:59:40;;;;;;;12.20;6.40;;;15.40;80.40;;;;;;5063709;28;21018;-67
2021/03/30 08:02:09;;;;;;;7.43;6.70;;;15.30;79.60;;;;;;5052522;28;20185;-68
2021/03/30 08:04:35;;;;;;;12.23;6.53;;;15.60;78.20;;;;;;5063981;28;20430;-67
2021/03/30 08:07:00;;;;;;;9.97;6.60;;;15.80;77.50;;;;;;5060434;28;21005;-68
2021/03/30 08:09:26;;;;;;;7.60;6.80;;;15.80;77.40;;;;;;5056111;28;20262;-68
2021/03/30 08:11:54;;;;;;;6.80;6.20;;;16.10;77.20;;;;;;5059508;28;20177;-68
2021/03/30 08:14:19;;;;;;;9.03;6.03;;;16.60;75.90;;;;;;5061634;28;20266;-68
2021/03/30 08:16:51;;;;;;;8.67;6.33;;;17.00;74.40;;;;;;5065555;28;20430;-67
2021/03/30 08:19:18;;;;;;;8.77;6.97;;;17.40;73.10;;;;;;5056031;28;20208;-68
2021/03/30 08:22:06;;;;;;;11.00;6.03;;;17.80;70.40;;;;;;5059700;28;20459;-68
2021/03/30 08:24:44;;;;;;;8.97;6.60;;;18.20;69.20;;;;;;5063186;28;20427;-68
2021/03/30 08:27:31;;;;;;;6.93;6.10;;;18.50;67.70;;;;;;5054171;28;20455;-68
2021/03/30 08:30:14;;;;;;;10.40;6.53;;;18.80;66.70;;;;;;5062262;28;20450;-67
2021/03/30 08:32:48;;;;;;;5.83;5.30;;;18.90;64.40;;;;;;5070030;28;20849;-68
2021/03/30 08:35:38;;;;;;;7.63;6.93;;;19.00;62.60;;;;;;5064806;28;20442;-68
2021/03/30 08:38:05;;;;;;;10.87;6.13;;;19.10;62.50;;;;;;5064555;28;20422;-68
2021/03/30 08:40:36;;;;;;;7.43;5.73;;;19.20;60.30;;;;;;5056995;28;20443;-67
2021/03/30 08:43:14;;;;;;;6.80;6.20;;;19.70;58.30;;;;;;5068595;28;20420;-68
2021/03/30 08:46:07;;;;;;;8.37;6.50;;;19.90;55.80;;;;;;5064590;28;20822;-69
2021/03/30 08:48:52;;;;;;;11.80;6.50;;;20.00;55.20;;;;;;5071605;28;20490;-68
2021/03/30 08:51:19;;;;;;;8.47;6.60;;;20.60;55.20;;;;;;5066120;28;20458;-68
2021/03/30 08:53:47;;;;;;;6.80;5.97;;;21.00;54.30;;;;;;5060752;28;20931;-67
2021/03/30 08:56:13;;;;;;;7.53;6.80;;;20.90;53.90;;;;;;5071532;28;20483;-70
2021/03/30 08:58:48;;;;;;;8.17;7.27;;;21.60;51.50;;;;;;5055743;28;20443;-69
2021/03/30 09:01:14;;;;;;;10.77;6.40;;;22.20;50.30;;;;;;5066129;28;20434;-69
2021/03/30 09:03:41;;;;;;;8.10;7.13;;;22.60;49.80;;;;;;5061296;28;20805;-69
2021/03/30 09:06:37;;;;;;;11.17;7.00;;;23.00;48.30;;;;;;5062527;28;20744;-69
2021/03/30 09:09:04;;;;;;;7.10;6.50;;;23.20;48.30;;;;;;5055494;28;20463;-70
2021/03/30 09:11:35;;;;;;;9.40;7.33;;;23.20;46.80;;;;;;5056111;28;20440;-69
2021/03/30 09:14:02;;;;;;;7.70;6.57;;;22.90;46.50;;;;;;5063318;28;20437;-68
2021/03/30 09:16:28;;;;;;;7.23;5.97;;;23.60;46.30;;;;;;5072403;28;20431;-70
2021/03/30 09:19:15;;;;;;;6.93;6.23;;;23.40;45.50;;;;;;5059879;28;20542;-70
2021/03/30 09:21:42;;;;;;;9.00;6.73;;;24.20;44.70;;;;;;5059938;28;20170;-70
2021/03/30 09:24:18;;;;;;;10.47;5.77;;;24.50;44.00;;;;;;5061671;28;20812;-70
2021/03/30 09:26:49;;;;;;;12.20;6.60;;;24.90;43.70;;;;;;5069666;28;20510;-69
2021/03/30 09:29:18;;;;;;;7.67;6.90;;;25.40;42.70;;;;;;5054254;28;20948;-70
2021/03/30 09:31:47;;;;;;;9.90;6.63;;;26.30;42.30;;;;;;5063920;28;20481;-69
2021/03/30 09:34:13;;;;;;;9.37;6.93;;;25.80;41.00;;;;;;5057805;28;20544;-70
2021/03/30 09:36:44;;;;;;;8.30;6.17;;;26.90;40.60;;;;;;5068219;28;20488;-68
2021/03/30 09:39:23;;;;;;;10.10;6.50;;;27.60;38.60;;;;;;5056933;28;20189;-67
2021/03/30 09:41:50;;;;;;;13.17;6.50;;;28.00;39.40;;;;;;5068284;28;20430;-70
2021/03/30 09:44:17;;;;;;;8.90;6.83;;;29.10;37.90;;;;;;5060896;28;20442;-67
2021/03/30 09:46:45;;;;;;;6.83;5.90;;;30.00;36.10;;;;;;5069953;28;20442;-70
2021/03/30 09:49:13;;;;;;;11.10;6.70;;;29.90;35.40;;;;;;5064786;28;20546;-67
2021/03/30 09:51:40;;;;;;;7.50;6.70;;;29.30;35.10;;;;;;5062876;28;20565;-67
2021/03/30 09:54:27;;;;;;;11.70;8.20;;;29.80;35.60;;;;;;5061531;28;20443;-67
2021/03/30 09:57:10;;;;;;;7.63;6.77;;;30.70;33.80;;;;;;5055262;28;20467;-67
2021/03/30 09:59:36;;;;;;;7.03;6.43;;;31.30;32.20;;;;;;5063398;28;20821;-67
2021/03/30 10:02:02;;;;;;;10.07;9.07;;;31.20;31.90;;;;;;5054361;28;20424;-67
2021/03/30 10:04:31;;;;;;;8.50;7.20;;;30.80;32.20;;;;;;5065492;28;20173;-67
2021/03/30 10:06:57;;;;;;;7.73;6.40;;;31.50;31.00;;;;;;5059620;28;20805;-67
2021/03/30 10:09:22;;;;;;;8.57;7.23;;;30.80;31.00;;;;;;5069457;28;20489;-68
2021/03/30 10:11:51;;;;;;;11.20;6.50;;;30.20;32.80;;;;;;5061938;28;20177;-68
2021/03/30 10:14:18;;;;;;;6.57;5.70;;;28.80;32.60;;;;;;5069389;28;20181;-68
2021/03/30 10:16:44;;;;;;;7.63;6.93;;;30.10;32.70;;;;;;5066389;28;20461;-68
2021/03/30 10:19:13;;;;;;;7.10;6.20;;;31.80;31.30;;;;;;5061346;28;20454;-68
2021/03/30 10:21:39;;;;;;;6.00;5.50;;;32.80;29.50;;;;;;5053094;28;20430;-68
2021/03/30 10:24:15;;;;;;;5.77;5.20;;;33.10;29.20;;;;;;5058888;28;20451;-68
2021/03/30 10:26:41;;;;;;;5.23;4.80;;;34.10;28.80;;;;;;5066755;28;20431;-66
2021/03/30 10:29:20;;;;;;;6.40;5.80;;;34.70;28.70;;;;;;5054792;28;20886;-66
2021/03/30 10:31:58;;;;;;;5.70;5.20;;;35.60;28.70;;;;;;5052350;28;20431;-66
2021/03/30 10:34:31;;;;;;;5.60;5.03;;;36.20;27.50;;;;;;5065935;28;20461;-66
2021/03/30 10:37:12;;;;;;;6.23;5.57;;;36.80;26.60;;;;;;5065572;28;20463;-68
2021/03/30 10:39:41;;;;;;;6.33;4.83;;;37.10;26.50;;;;;;5067252;28;20440;-66
2021/03/30 10:42:17;;;;;;;6.93;5.00;;;37.60;25.70;;;;;;5067892;28;20470;-67
2021/03/30 10:44:48;;;;;;;7.80;7.20;;;37.80;26.00;;;;;;5060197;28;20526;-67
2021/03/30 10:47:14;;;;;;;6.10;5.67;;;38.60;25.50;;;;;;5063441;28;20431;-67
2021/03/30 10:49:40;;;;;;;4.83;4.40;;;39.20;24.90;;;;;;5067393;28;20457;-66
2021/03/30 10:52:12;;;;;;;6.47;6.07;;;38.30;25.10;;;;;;5059324;28;20442;-65
2021/03/30 10:54:38;;;;;;;6.60;6.10;;;39.40;25.50;;;;;;5056378;28;20474;-66
2021/03/30 10:57:13;;;;;;;5.20;4.90;;;40.70;25.50;;;;;;5062525;28;20996;-66
2021/03/30 10:59:39;;;;;;;5.73;5.10;;;41.00;24.00;;;;;;5064088;28;20449;-66
2021/03/30 11:02:04;;;;;;;6.90;4.67;;;41.30;23.60;;;;;;5065639;28;20434;-65
2021/03/30 11:04:30;;;;;;;7.53;4.93;;;41.10;23.60;;;;;;5060672;28;20177;-66
2021/03/30 11:06:56;;;;;;;5.10;4.60;;;40.40;23.10;;;;;;5061515;28;20272;-66
2021/03/30 11:09:23;;;;;;;6.60;5.40;;;40.60;23.10;;;;;;5051246;28;20201;-66
2021/03/30 11:11:49;;;;;;;5.00;4.50;;;39.40;23.30;;;;;;5063224;28;20203;-66
2021/03/30 11:14:15;;;;;;;6.97;5.23;;;40.20;23.40;;;;;;5066688;28;20439;-66
2021/03/30 11:16:40;;;;;;;6.07;5.50;;;39.70;23.40;;;;;;5062585;28;20196;-66
2021/03/30 11:19:06;;;;;;;6.03;5.43;;;39.10;23.30;;;;;;5060131;28;20211;-67
2021/03/30 11:21:32;;;;;;;5.80;5.40;;;39.80;23.40;;;;;;5063405;28;20176;-67
2021/03/30 11:24:03;;;;;;;6.43;4.77;;;41.40;23.00;;;;;;5052784;28;20200;-69
2021/03/30 11:26:29;;;;;;;6.20;5.30;;;42.10;22.30;;;;;;5058976;28;20432;-70
2021/03/30 11:28:55;;;;;;;5.53;5.13;;;42.20;21.90;;;;;;5054493;28;20458;-70
2021/03/30 11:31:42;;;;;;;6.60;6.10;;;40.00;22.30;;;;;;5064498;28;20263;-69
2021/03/30 11:36:48;;;;;;;16.70;15.47;;;41.30;22.10;;;;;;5066100;28;20554;-69
2021/03/30 11:39:14;;;;;;;6.07;5.47;;;42.70;21.90;;;;;;5065509;28;20527;-70
2021/03/30 11:41:39;;;;;;;6.40;5.90;;;40.90;21.70;;;;;;5067148;28;20526;-70
2021/03/30 11:44:05;;;;;;;6.47;5.87;;;40.70;21.80;;;;;;5054478;28;20192;-69
2021/03/30 11:46:31;;;;;;;6.27;5.63;;;41.10;21.90;;;;;;5061119;28;20675;-70
2021/03/30 11:48:56;;;;;;;7.00;5.27;;;41.40;21.90;;;;;;5051233;28;20259;-69
2021/03/30 11:51:22;;;;;;;6.10;5.63;;;41.00;22.10;;;;;;5066691;28;20189;-69
2021/03/30 11:53:47;;;;;;;5.67;5.07;;;40.60;21.50;;;;;;5062703;28;20195;-70
2021/03/30 11:56:13;;;;;;;5.90;5.40;;;41.00;21.80;;;;;;5067974;28;20251;-70
2021/03/30 11:58:38;;;;;;;5.07;4.77;;;41.20;21.60;;;;;;5066034;28;20588;-70
2021/03/30 12:01:07;;;;;;;5.70;5.20;;;41.80;21.80;;;;;;5058373;28;20255;-69
2021/03/30 12:03:35;;;;;;;8.23;5.27;;;42.40;21.00;;;;;;5057069;28;20181;-70
2021/03/30 12:06:01;;;;;;;5.17;4.77;;;41.70;20.90;;;;;;5070024;28;20496;-70
2021/03/30 12:08:27;;;;;;;5.17;4.67;;;42.00;21.30;;;;;;5061078;28;20469;-70
2021/03/30 12:10:52;;;;;;;4.90;4.53;;;42.20;21.10;;;;;;5055642;28;20862;-70
2021/03/30 12:13:18;;;;;;;5.77;5.37;;;41.90;21.30;;;;;;5054742;28;20177;-70
2021/03/30 12:15:43;;;;;;;6.27;5.27;;;42.80;21.00;;;;;;5068595;28;20232;-70
2021/03/30 12:18:09;;;;;;;6.33;4.77;;;43.10;20.90;;;;;;5057007;28;20610;-71
2021/03/30 12:20:34;;;;;;;5.20;4.60;;;42.80;21.00;;;;;;5068957;28;20560;-70
2021/03/30 12:23:00;;;;;;;5.53;4.73;;;42.50;20.50;;;;;;5062297;28;20188;-70
2021/03/30 12:25:25;;;;;;;5.43;4.90;;;42.40;20.20;;;;;;5071005;28;20207;-71
2021/03/30 12:27:51;;;;;;;6.57;4.77;;;43.10;20.20;;;;;;5068886;28;20174;-70
2021/03/30 12:30:17;;;;;;;5.07;4.67;;;;;;;;;;5068737;28;20224;-70
2021/03/30 12:32:43;;;;;;;4.60;4.30;;;44.90;39.80;;;;;;5070956;28;20199;-71
2021/03/30 12:35:09;;;;;;;5.40;5.00;;;43.30;35.00;;;;;;5071107;28;20952;-71
2021/03/30 12:37:34;;;;;;;7.73;7.13;;;44.50;29.50;;;;;;5069883;28;20748;-72
2021/03/30 12:40:00;;;;;;;5.07;4.27;;;45.10;26.20;;;;;;5060749;28;20451;-71
2021/03/30 12:42:26;;;;;;;4.77;4.40;;;45.00;25.20;;;;;;5059005;28;20186;-71
2021/03/30 12:44:51;;;;;;;4.57;3.50;;;44.40;24.60;;;;;;5069058;28;20196;-70
2021/03/30 12:47:17;;;;;;;4.63;4.33;;;42.90;25.80;;;;;;5072966;28;20208;-70
2021/03/30 12:49:42;;;;;;;4.63;4.27;;;42.20;25.70;;;;;;5069963;28;20201;-70
2021/03/30 12:52:08;;;;;;;4.93;4.60;;;43.20;25.80;;;;;;5054128;28;20671;-70
2021/03/30 12:54:34;;;;;;;4.33;4.03;;;44.10;23.80;;;;;;5060001;28;20554;-70
2021/03/30 12:56:59;;;;;;;4.23;3.83;;;40.20;23.70;;;;;;5070123;28;20200;-71
2021/03/30 12:59:25;;;;;;;7.80;4.30;;;38.70;24.00;;;;;;5060844;28;20188;-71
2021/03/30 13:01:50;;;;;;;4.50;4.20;;;39.50;23.90;;;;;;5067118;28;20177;-70
2021/03/30 13:04:16;;;;;;;4.00;3.70;;;40.50;23.40;;;;;;5060918;28;20185;-70